KESN/ESN METAR and TAF weather

Enter ICAO airport designator
Station Type Date Time Source
KESN METAR 2019/12/10 19:50 UTC NOAA

KESN 101950Z 23005KT 4SM -DZ BKN006 BKN015 OVC021 16/15 A2991


Station Type Date Time Source
KESN Decoded METAR 2019/12/10 19:50 UTC NOAA

Easton / Newman Field, MD, United States (KESN) 38-48N 076-04W
Dec 10, 2019 - 02:50 PM EST / 2019.12.10 1950 UTC
Wind: from the SW (230 degrees) at 6 MPH (5 KT):0
Visibility: 4 mile(s):0
Sky conditions: overcast
Weather: light drizzle
Temperature: 60 F (16 C)
Dew Point: 59 F (15 C)
Relative Humidity: 93%
Pressure (altimeter): 29.91 in. Hg (1012 hPa)
ob: KESN 101950Z 23005KT 4SM -DZ BKN006 BKN015 OVC021 16/15 A2991
cycle: 20

Station Type Date Time Source
KESN TAF UTC NOAA

Error!

Example: see airport list